Time;durP1;ratioP1;P1;durP2;ratioP2;P2;SDS_P1;SDS_P2;PMS_P1;PMS_P2;Temp;Humidity;BMP_temperature;BMP_pressure;BME280_temperature;BME280_humidity;BME280_pressure;Samples;Min_cycle;Max_cycle;Signal;HPM_P1;HPM_P2
2022/02/17 00:02:22;;;;;;;;;;;;;;;;;;5076686;28;19908;-82
2022/02/17 00:04:47;;;;;;;;;;;;;;;;;;5076678;28;19908;-82
2022/02/17 00:07:12;;;;;;;;;;;;;;;;;;5076651;28;19908;-81
2022/02/17 00:09:38;;;;;;;;;;;;;;;;;;5076573;28;20347;-81
2022/02/17 00:12:03;;;;;;;;;;;;;;;;;;5076490;28;20483;-81
2022/02/17 00:14:28;;;;;;;;;;;;;;;;;;5076327;28;19993;-81
2022/02/17 00:16:53;;;;;;;;;;;;;;;;;;5076469;28;20068;-81
2022/02/17 00:19:18;;;;;;;;;;;;;;;;;;5076416;28;19914;-81
2022/02/17 00:21:44;;;;;;;;;;;;;;;;;;5076426;28;19930;-81
2022/02/17 00:24:09;;;;;;;;;;;;;;;;;;5076317;28;19912;-82
2022/02/17 00:26:34;;;;;;;;;;;;;;;;;;5076430;28;20014;-82
2022/02/17 00:29:00;;;;;;;;;;;;;;;;;;5075978;28;19926;-81
2022/02/17 00:31:25;;;;;;;;;;;;;;;;;;5076284;28;20373;-81
2022/02/17 00:33:50;;;;;;;;;;;;;;;;;;5076076;28;19916;-82
2022/02/17 00:36:15;;;;;;;;;;;;;;;;;;5076244;28;19915;-81
2022/02/17 00:38:40;;;;;;;;;;;;;;;;;;5075803;28;19912;-81
2022/02/17 00:41:05;;;;;;;;;;;;;;;;;;5076169;28;19908;-81
2022/02/17 00:43:30;;;;;;;;;;;;;;;;;;5076100;28;20279;-81
2022/02/17 00:45:55;;;;;;;;;;;;;;;;;;5094085;28;19915;-81
2022/02/17 00:48:20;;;;;;;;;;;;;;;;;;5076038;28;19915;-81
2022/02/17 00:50:46;;;;;;;;;;;;;;;;;;5075997;28;19908;-81
2022/02/17 00:53:11;;;;;;;;;;;;;;;;;;5075696;28;20014;-81
2022/02/17 00:55:36;;;;;;;;;;;;;;;;;;5075909;28;20018;-81
2022/02/17 00:58:01;;;;;;;;;;;;;;;;;;5076000;28;20002;-81
2022/02/17 01:00:26;;;;;;;;;;;;;;;;;;5075903;28;19994;-81
2022/02/17 01:02:51;;;;;;;;;;;;;;;;;;5075923;28;20352;-81
2022/02/17 01:05:16;;;;;;;;;;;;;;;;;;5075788;28;19908;-81
2022/02/17 01:07:41;;;;;;;;;;;;;;;;;;5075666;28;20382;-81
2022/02/17 01:10:06;;;;;;;;;;;;;;;;;;5075129;28;19919;-81
2022/02/17 01:12:31;;;;;;;;;;;;;;;;;;5075709;28;19919;-82
2022/02/17 01:14:57;;;;;;;;;;;;;;;;;;5075662;28;19908;-81
2022/02/17 01:17:22;;;;;;;;;;;;;;;;;;5075750;28;19908;-82
2022/02/17 01:19:47;;;;;;;;;;;;;;;;;;5094244;28;19979;-81
2022/02/17 01:22:13;;;;;;;;;;;;;;;;;;5075835;28;20268;-81
2022/02/17 01:24:39;;;;;;;;;;;;;;;;;;5093891;28;19934;-81
2022/02/17 01:27:04;;;;;;;;;;;;;;;;;;5093790;28;19908;-81
2022/02/17 01:29:29;;;;;;;;;;;;;;;;;;5075657;28;19908;-81
2022/02/17 01:31:54;;;;;;;;;;;;;;;;;;5075489;28;20480;-81
2022/02/17 01:34:19;;;;;;;;;;;;;;;;;;5075377;28;19916;-81
2022/02/17 01:36:44;;;;;;;;;;;;;;;;;;5075571;28;19912;-81
2022/02/17 01:39:09;;;;;;;;;;;;;;;;;;5074710;28;19913;-81
2022/02/17 01:41:34;;;;;;;;;;;;;;;;;;5093115;28;19913;-81
2022/02/17 01:44:02;;;;;;;;;;;;;;;;;;5092958;28;19908;-81
2022/02/17 01:46:27;;;;;;;;;;;;;;;;;;5075108;28;20218;-81
2022/02/17 01:48:52;;;;;;;;;;;;;;;;;;5075001;28;19919;-81
2022/02/17 01:51:17;;;;;;;;;;;;;;;;;;5074862;28;19926;-81
2022/02/17 01:53:42;;;;;;;;;;;;;;;;;;5074685;28;20382;-81
2022/02/17 01:56:07;;;;;;;;;;;;;;;;;;5093082;28;19962;-81
2022/02/17 01:58:33;;;;;;;;;;;;;;;;;;5074908;28;19908;-81
2022/02/17 02:00:59;;;;;;;;;;;;;;;;;;5074857;28;20302;-81
2022/02/17 02:03:24;;;;;;;;;;;;;;;;;;5074978;28;19912;-81
2022/02/17 02:05:50;;;;;;;;;;;;;;;;;;5075176;28;20342;-82
2022/02/17 02:08:15;;;;;;;;;;;;;;;;;;5074497;28;19916;-82
2022/02/17 02:10:40;;;;;;;;;;;;;;;;;;5074916;28;19912;-82
2022/02/17 02:13:05;;;;;;;;;;;;;;;;;;5075108;28;20257;-81
2022/02/17 02:15:30;;;;;;;;;;;;;;;;;;5074989;28;19912;-81
2022/02/17 02:17:55;;;;;;;;;;;;;;;;;;5074927;28;19913;-82
2022/02/17 02:20:20;;;;;;;;;;;;;;;;;;5074704;28;19912;-81
2022/02/17 02:22:45;;;;;;;;;;;;;;;;;;5077994;28;19953;-81
2022/02/17 02:25:10;;;;;;;;;;;;;;;;;;5078648;28;20417;-81
2022/02/17 02:27:36;;;;;;;;;;;;;;;;;;5078676;28;19914;-82
2022/02/17 02:30:01;;;;;;;;;;;;;;;;;;5078499;28;20356;-81
2022/02/17 02:32:26;;;;;;;;;;;;;;;;;;5078546;28;19942;-81
2022/02/17 02:34:51;;;;;;;;;;;;;;;;;;5077826;28;19916;-81
2022/02/17 02:37:16;;;;;;;;;;;;;;;;;;5078426;28;19957;-81
2022/02/17 02:39:41;;;;;;;;;;;;;;;;;;5078389;28;19908;-81
2022/02/17 02:42:06;;;;;;;;;;;;;;;;;;5078269;28;19913;-81
2022/02/17 02:44:31;;;;;;;;;;;;;;;;;;5078339;28;19912;-81
2022/02/17 02:46:57;;;;;;;;;;;;;;;;;;5078263;28;19951;-81
2022/02/17 02:49:22;;;;;;;;;;;;;;;;;;5096351;28;20366;-81
2022/02/17 02:51:47;;;;;;;;;;;;;;;;;;5077794;28;19919;-81
2022/02/17 02:54:12;;;;;;;;;;;;;;;;;;5078043;28;19914;-82
2022/02/17 02:56:37;;;;;;;;;;;;;;;;;;5078204;28;19908;-81
2022/02/17 02:59:02;;;;;;;;;;;;;;;;;;5077752;28;20286;-81
2022/02/17 03:01:27;;;;;;;;;;;;;;;;;;5078020;28;19954;-81
2022/02/17 03:03:52;;;;;;;;;;;;;;;;;;5077998;28;19915;-81
2022/02/17 03:06:18;;;;;;;;;;;;;;;;;;5077874;28;19908;-81
2022/02/17 03:08:43;;;;;;;;;;;;;;;;;;5077427;28;19912;-81
2022/02/17 03:11:08;;;;;;;;;;;;;;;;;;5077969;28;19912;-81
2022/02/17 03:13:33;;;;;;;;;;;;;;;;;;5077765;28;20378;-81
2022/02/17 03:15:58;;;;;;;;;;;;;;;;;;5077664;28;19908;-81
2022/02/17 03:18:23;;;;;;;;;;;;;;;;;;5077347;28;19913;-81
2022/02/17 03:20:48;;;;;;;;;;;;;;;;;;5077678;28;19915;-81
2022/02/17 03:23:13;;;;;;;;;;;;;;;;;;5077483;28;19915;-81
2022/02/17 03:25:38;;;;;;;;;;;;;;;;;;5077586;28;19908;-81
2022/02/17 03:28:03;;;;;;;;;;;;;;;;;;5095660;28;20283;-81
2022/02/17 03:30:29;;;;;;;;;;;;;;;;;;5077375;28;19908;-81
2022/02/17 03:32:54;;;;;;;;;;;;;;;;;;5076411;28;19986;-82
2022/02/17 03:35:19;;;;;;;;;;;;;;;;;;5077199;28;19965;-81
2022/02/17 03:37:44;;;;;;;;;;;;;;;;;;5095434;28;20325;-81
2022/02/17 03:40:09;;;;;;;;;;;;;;;;;;5077193;28;19914;-81
2022/02/17 03:42:35;;;;;;;;;;;;;;;;;;5077117;28;19916;-81
2022/02/17 03:45:00;;;;;;;;;;;;;;;;;;5077102;28;19934;-81
2022/02/17 03:47:25;;;;;;;;;;;;;;;;;;5076898;28;19908;-81
2022/02/17 03:49:51;;;;;;;;;;;;;;;;;;5076853;28;19934;-81
2022/02/17 03:52:16;;;;;;;;;;;;;;;;;;5076605;28;19916;-81
2022/02/17 03:54:41;;;;;;;;;;;;;;;;;;5076925;28;19908;-81
2022/02/17 03:57:06;;;;;;;;;;;;;;;;;;5076918;28;19931;-81
2022/02/17 03:59:31;;;;;;;;;;;;;;;;;;5074090;28;20283;-81
2022/02/17 04:01:56;;;;;;;;;;;;;;;;;;5056751;28;19934;-81
2022/02/17 04:04:21;;;;;;;;;;;;;;;;;;5056608;28;19916;-81
2022/02/17 04:06:46;;;;;;;;;;;;;;;;;;5056771;28;19912;-81
2022/02/17 04:09:11;;;;;;;;;;;;;;;;;;5056652;28;19916;-81
2022/02/17 04:11:37;;;;;;;;;;;;;;;;;;5056592;28;19912;-81
2022/02/17 04:14:02;;;;;;;;;;;;;;;;;;5056600;28;19964;-81
2022/02/17 04:16:29;;;;;;;;;;;;;;;;;;5060462;28;19912;-81
2022/02/17 04:18:54;;;;;;;;;;;;;;;;;;5076169;28;19916;-81
2022/02/17 04:21:22;;;;;;;;;;;;;;;;;;5094761;28;19914;-81
2022/02/17 04:23:47;;;;;;;;;;;;;;;;;;5076502;28;19958;-81
2022/02/17 04:26:12;;;;;;;;;;;;;;;;;;5076046;28;19912;-81
2022/02/17 04:28:37;;;;;;;;;;;;;;;;;;5076379;28;19912;-81
2022/02/17 04:31:02;;;;;;;;;;;;;;;;;;5076245;28;19955;-81
2022/02/17 04:33:27;;;;;;;;;;;;;;;;;;5076264;28;19999;-81
2022/02/17 04:35:52;;;;;;;;;;;;;;;;;;5076070;28;19999;-81
2022/02/17 04:38:18;;;;;;;;;;;;;;;;;;5075746;28;20364;-81
2022/02/17 04:43:26;;;;;;;;;;;;;;;;;;5094219;28;20687;-81
2022/02/17 04:45:51;;;;;;;;;;;;;;;;;;5075146;28;20356;-81
2022/02/17 04:48:16;;;;;;;;;;;;;;;;;;5076046;28;19915;-81
2022/02/17 04:50:42;;;;;;;;;;;;;;;;;;5076032;28;20019;-81
2022/02/17 04:53:07;;;;;;;;;;;;;;;;;;5075993;28;19913;-81
2022/02/17 04:55:32;;;;;;;;;;;;;;;;;;5075975;28;20356;-81
2022/02/17 04:57:57;;;;;;;;;;;;;;;;;;5075922;28;19908;-81
2022/02/17 05:00:22;;;;;;;;;;;;;;;;;;5075952;28;20003;-81
2022/02/17 05:02:47;;;;;;;;;;;;;;;;;;5075731;28;19916;-81
2022/02/17 05:05:13;;;;;;;;;;;;;;;;;;5075886;28;19908;-81
2022/02/17 05:07:38;;;;;;;;;;;;;;;;;;5075931;28;19916;-81
2022/02/17 05:10:03;;;;;;;;;;;;;;;;;;5075856;28;19947;-81
2022/02/17 05:12:28;;;;;;;;;;;;;;;;;;5075530;28;19916;-81
2022/02/17 05:14:53;;;;;;;;;;;;;;;;;;5075767;28;20409;-81
2022/02/17 05:17:19;;;;;;;;;;;;;;;;;;5075834;28;19909;-81
2022/02/17 05:19:44;;;;;;;;;;;;;;;;;;5075679;28;19908;-81
2022/02/17 05:22:09;;;;;;;;;;;;;;;;;;5093894;28;19909;-80
2022/02/17 05:24:34;;;;;;;;;;;;;;;;;;5075775;28;19912;-81
2022/02/17 05:26:59;;;;;;;;;;;;;;;;;;5075589;28;19912;-81
2022/02/17 05:29:24;;;;;;;;;;;;;;;;;;5075608;28;20010;-81
2022/02/17 05:31:49;;;;;;;;;;;;;;;;;;5075329;28;20304;-81
2022/02/17 05:34:17;;;;;;;;;;;;;;;;;;5075601;28;19919;-81
2022/02/17 05:36:42;;;;;;;;;;;;;;;;;;5075555;28;19915;-81
2022/02/17 05:39:07;;;;;;;;;;;;;;;;;;5075547;28;19908;-81
2022/02/17 05:41:32;;;;;;;;;;;;;;;;;;5075442;28;19957;-81
2022/02/17 05:43:57;;;;;;;;;;;;;;;;;;5075361;28;19969;-80
2022/02/17 05:46:22;;;;;;;;;;;;;;;;;;5075358;28;20382;-81
2022/02/17 05:48:47;;;;;;;;;;;;;;;;;;5075334;28;20417;-80
2022/02/17 05:51:13;;;;;;;;;;;;;;;;;;5075407;28;19938;-81
2022/02/17 05:53:38;;;;;;;;;;;;;;;;;;5075245;28;19958;-81
2022/02/17 05:56:03;;;;;;;;;;;;;;;;;;5075727;28;19912;-81
2022/02/17 05:58:28;;;;;;;;;;;;;;;;;;5078987;28;19916;-81
2022/02/17 06:00:53;;;;;;;;;;;;;;;;;;5078596;28;20265;-81
2022/02/17 06:03:18;;;;;;;;;;;;;;;;;;5079059;28;19908;-81
2022/02/17 06:05:43;;;;;;;;;;;;;;;;;;5078947;28;19908;-81
2022/02/17 06:08:08;;;;;;;;;;;;;;;;;;5078819;28;20279;-81
2022/02/17 06:10:34;;;;;;;;;;;;;;;;;;5078931;28;19915;-81
2022/02/17 06:12:59;;;;;;;;;;;;;;;;;;5078646;28;19920;-81
2022/02/17 06:15:24;;;;;;;;;;;;;;;;;;5078811;28;19923;-81
2022/02/17 06:17:49;;;;;;;;;;;;;;;;;;5078379;28;20296;-81
2022/02/17 06:20:14;;;;;;;;;;;;;;;;;;5097052;28;20263;-81
2022/02/17 06:22:39;;;;;;;;;;;;;;;;;;5078766;28;19957;-81
2022/02/17 06:25:05;;;;;;;;;;;;;;;;;;5078652;28;19916;-81
2022/02/17 06:27:30;;;;;;;;;;;;;;;;;;5078573;28;19908;-81
2022/02/17 06:29:55;;;;;;;;;;;;;;;;;;5078516;28;19916;-81
2022/02/17 06:32:20;;;;;;;;;;;;;;;;;;5096690;28;19912;-81
2022/02/17 06:34:45;;;;;;;;;;;;;;;;;;5078394;28;20389;-81
2022/02/17 06:37:10;;;;;;;;;;;;;;;;;;5078446;28;19923;-81
2022/02/17 06:39:35;;;;;;;;;;;;;;;;;;5078275;28;19908;-81
2022/02/17 06:42:00;;;;;;;;;;;;;;;;;;5077016;28;19934;-81
2022/02/17 06:44:25;;;;;;;;;;;;;;;;;;5096180;28;19957;-81
2022/02/17 06:46:51;;;;;;;;;;;;;;;;;;5078260;28;19908;-80
2022/02/17 06:49:16;;;;;;;;;;;;;;;;;;5078413;28;19976;-81
2022/02/17 06:51:41;;;;;;;;;;;;;;;;;;5077827;28;19920;-81
2022/02/17 06:54:07;;;;;;;;;;;;;;;;;;5081371;28;19919;-81
2022/02/17 06:56:32;;;;;;;;;;;;;;;;;;5082924;28;19916;-81
2022/02/17 06:58:57;;;;;;;;;;;;;;;;;;5078058;28;19912;-82
2022/02/17 07:01:23;;;;;;;;;;;;;;;;;;5087561;28;20275;-82
2022/02/17 07:03:48;;;;;;;;;;;;;;;;;;5084644;28;20382;-82
2022/02/17 07:06:13;;;;;;;;;;;;;;;;;;5096981;28;19912;-82
2022/02/17 07:08:38;;;;;;;;;;;;;;;;;;5097143;28;19912;-82
2022/02/17 07:11:04;;;;;;;;;;;;;;;;;;5089136;28;19938;-82
2022/02/17 07:13:29;;;;;;;;;;;;;;;;;;5087414;28;20330;-82
2022/02/17 07:15:55;;;;;;;;;;;;;;;;;;5077776;28;20310;-82
2022/02/17 07:18:20;;;;;;;;;;;;;;;;;;5077706;28;19912;-81
2022/02/17 07:20:45;;;;;;;;;;;;;;;;;;5076741;28;19934;-81
2022/02/17 07:23:10;;;;;;;;;;;;;;;;;;5077123;28;21393;-82
2022/02/17 07:25:36;;;;;;;;;;;;;;;;;;5076217;28;19921;-82
2022/02/17 07:28:01;;;;;;;;;;;;;;;;;;5076726;28;19920;-81
2022/02/17 07:30:26;;;;;;;;;;;;;;;;;;5076353;28;19924;-82
2022/02/17 07:32:52;;;;;;;;;;;;;;;;;;5077283;28;19919;-81
2022/02/17 07:35:17;;;;;;;;;;;;;;;;;;5077296;28;20325;-82
2022/02/17 07:37:42;;;;;;;;;;;;;;;;;;5076672;28;19912;-82
2022/02/17 07:40:07;;;;;;;;;;;;;;;;;;5077173;28;19908;-82
2022/02/17 07:42:32;;;;;;;;;;;;;;;;;;5076875;28;19912;-82
2022/02/17 07:44:59;;;;;;;;;;;;;;;;;;5094879;28;19916;-82
2022/02/17 07:47:24;;;;;;;;;;;;;;;;;;5095015;28;20363;-83
2022/02/17 07:49:49;;;;;;;;;;;;;;;;;;5077018;28;20420;-82
2022/02/17 07:52:15;;;;;;;;;;;;;;;;;;5076946;28;19916;-82
2022/02/17 07:54:40;;;;;;;;;;;;;;;;;;5076932;28;19957;-82
2022/02/17 07:57:05;;;;;;;;;;;;;;;;;;5076925;28;19918;-82
2022/02/17 07:59:31;;;;;;;;;;;;;;;;;;5076769;28;20989;-82
2022/02/17 08:01:56;;;;;;;;;;;;;;;;;;5076259;28;19912;-81
2022/02/17 08:04:21;;;;;;;;;;;;;;;;;;5076722;28;19908;-82
2022/02/17 08:06:46;;;;;;;;;;;;;;;;;;5076382;28;19915;-82
2022/02/17 08:09:11;;;;;;;;;;;;;;;;;;5076315;28;19973;-82
2022/02/17 08:11:36;;;;;;;;;;;;;;;;;;5076067;28;20445;-82
2022/02/17 08:14:01;;;;;;;;;;;;;;;;;;5076416;28;19965;-82
2022/02/17 08:16:26;;;;;;;;;;;;;;;;;;5075762;28;19908;-81
2022/02/17 08:18:51;;;;;;;;;;;;;;;;;;5075752;28;19995;-82
2022/02/17 08:21:17;;;;;;;;;;;;;;;;;;5076252;28;19908;-82
2022/02/17 08:23:42;;;;;;;;;;;;;;;;;;5076110;28;19970;-82
2022/02/17 08:26:07;;;;;;;;;;;;;;;;;;5094085;28;19915;-82
2022/02/17 08:28:32;;;;;;;;;;;;;;;;;;5073887;28;20061;-82
2022/02/17 08:30:57;;;;;;;;;;;;;;;;;;5094066;28;19926;-82
2022/02/17 08:33:22;;;;;;;;;;;;;;;;;;5076126;28;19965;-82
2022/02/17 08:35:47;;;;;;;;;;;;;;;;;;5075246;28;20252;-82
2022/02/17 08:38:12;;;;;;;;;;;;;;;;;;5075907;28;19912;-82
2022/02/17 08:40:37;;;;;;;;;;;;;;;;;;5076158;28;20283;-82
2022/02/17 08:43:09;;;;;;;;;;;;;;;;;;5075941;28;19915;-82
2022/02/17 08:45:35;;;;;;;;;;;;;;;;;;5094319;28;19975;-82
2022/02/17 08:48:00;;;;;;;;;;;;;;;;;;5076051;28;19908;-82
2022/02/17 08:50:25;;;;;;;;;;;;;;;;;;5076011;28;20003;-82
2022/02/17 08:52:50;;;;;;;;;;;;;;;;;;5075976;28;20394;-82
2022/02/17 08:55:15;;;;;;;;;;;;;;;;;;5094095;28;20010;-81
2022/02/17 08:57:43;;;;;;;;;;;;;;;;;;5075736;28;20007;-82
2022/02/17 09:00:09;;;;;;;;;;;;;;;;;;5093970;28;20002;-82
2022/02/17 09:02:34;;;;;;;;;;;;;;;;;;5075967;28;20021;-82
2022/02/17 09:04:59;;;;;;;;;;;;;;;;;;5075829;28;19912;-82
2022/02/17 09:07:24;;;;;;;;;;;;;;;;;;5075885;28;19916;-82
2022/02/17 09:09:49;;;;;;;;;;;;;;;;;;5093811;28;19915;-82
2022/02/17 09:12:14;;;;;;;;;;;;;;;;;;5075597;28;20390;-82
2022/02/17 09:14:39;;;;;;;;;;;;;;;;;;5075744;28;19951;-82
2022/02/17 09:17:04;;;;;;;;;;;;;;;;;;5075669;28;19995;-82
2022/02/17 09:19:30;;;;;;;;;;;;;;;;;;5093398;28;20257;-82
2022/02/17 09:21:58;;;;;;;;;;;;;;;;;;5075689;28;19912;-82
2022/02/17 09:24:23;;;;;;;;;;;;;;;;;;5075497;28;19912;-82
2022/02/17 09:26:48;;;;;;;;;;;;;;;;;;5093649;28;19908;-82
2022/02/17 09:29:13;;;;;;;;;;;;;;;;;;5075401;28;19919;-82
2022/02/17 09:31:38;;;;;;;;;;;;;;;;;;5076952;28;20391;-82
2022/02/17 09:34:04;;;;;;;;;;;;;;;;;;5078621;28;19920;-82
2022/02/17 09:36:29;;;;;;;;;;;;;;;;;;5079284;28;19912;-82
2022/02/17 09:38:54;;;;;;;;;;;;;;;;;;5078280;28;19912;-82
2022/02/17 09:41:21;;;;;;;;;;;;;;;;;;5079377;28;19943;-82
2022/02/17 09:43:46;;;;;;;;;;;;;;;;;;5079543;28;19954;-82
2022/02/17 09:46:11;;;;;;;;;;;;;;;;;;5079182;28;19911;-81
2022/02/17 09:48:36;;;;;;;;;;;;;;;;;;5079075;28;19989;-80
2022/02/17 09:51:01;;;;;;;;;;;;;;;;;;5097473;28;20004;-80
2022/02/17 09:53:26;;;;;;;;;;;;;;;;;;5097290;28;20327;-80
2022/02/17 09:55:51;;;;;;;;;;;;;;;;;;5097402;28;19908;-78
2022/02/17 09:58:17;;;;;;;;;;;;;;;;;;5097303;28;20279;-79
2022/02/17 10:00:42;;;;;;;;;;;;;;;;;;5096961;28;19919;-79
2022/02/17 10:03:07;;;;;;;;;;;;;;;;;;5061976;28;19947;-79
2022/02/17 10:05:32;;;;;;;;;;;;;;;;;;5059024;28;19970;-79
2022/02/17 10:07:57;;;;;;;;;;;;;;;;;;5084282;28;20002;-79
2022/02/17 10:10:23;;;;;;;;;;;;;;;;;;5078842;28;19916;-84
2022/02/17 10:12:49;;;;;;;;;;;;;;;;;;5078494;28;19912;-84
2022/02/17 10:15:14;;;;;;;;;;;;;;;;;;5078610;28;20424;-84
2022/02/17 10:17:39;;;;;;;;;;;;;;;;;;5078680;28;19915;-84
2022/02/17 10:20:04;;;;;;;;;;;;;;;;;;5096428;28;19919;-84
2022/02/17 10:22:34;;;;;;;;;;;;;;;;;;5074562;28;19912;-84
2022/02/17 10:25:00;;;;;;;;;;;;;;;;;;5078026;28;19912;-84
2022/02/17 10:27:25;;;;;;;;;;;;;;;;;;5078156;28;20371;-84
2022/02/17 10:29:50;;;;;;;;;;;;;;;;;;5077884;28;20389;-84
2022/02/17 10:32:16;;;;;;;;;;;;;;;;;;5078206;28;19994;-84
2022/02/17 10:34:42;;;;;;;;;;;;;;;;;;5094900;28;19919;-84
2022/02/17 10:37:09;;;;;;;;;;;;;;;;;;5096217;28;20347;-84
2022/02/17 10:39:34;;;;;;;;;;;;;;;;;;5096277;28;19909;-84
2022/02/17 10:42:02;;;;;;;;;;;;;;;;;;5078078;28;20015;-84
2022/02/17 10:44:27;;;;;;;;;;;;;;;;;;5096299;28;20351;-84
2022/02/17 10:46:52;;;;;;;;;;;;;;;;;;5077664;28;19912;-84
2022/02/17 10:49:17;;;;;;;;;;;;;;;;;;5077771;28;19908;-84
2022/02/17 10:51:42;;;;;;;;;;;;;;;;;;5078025;28;19908;-84
2022/02/17 10:54:08;;;;;;;;;;;;;;;;;;5077974;28;19916;-84
2022/02/17 10:56:33;;;;;;;;;;;;;;;;;;5077191;28;19930;-84
2022/02/17 10:58:58;;;;;;;;;;;;;;;;;;5077289;28;20381;-84
2022/02/17 11:01:24;;;;;;;;;;;;;;;;;;5077283;28;19938;-84
2022/02/17 11:03:50;;;;;;;;;;;;;;;;;;5077792;28;19908;-84
2022/02/17 11:06:15;;;;;;;;;;;;;;;;;;5077761;28;20299;-84
2022/02/17 11:08:40;;;;;;;;;;;;;;;;;;5077654;28;19915;-84
2022/02/17 11:11:05;;;;;;;;;;;;;;;;;;5076686;28;19952;-84
2022/02/17 11:13:31;;;;;;;;;;;;;;;;;;5077567;28;19919;-84
2022/02/17 11:15:56;;;;;;;;;;;;;;;;;;5094239;28;19923;-85
2022/02/17 11:18:21;;;;;;;;;;;;;;;;;;5077154;28;19912;-85
2022/02/17 11:20:46;;;;;;;;;;;;;;;;;;5077432;28;19912;-84
2022/02/17 11:23:14;;;;;;;;;;;;;;;;;;5077461;28;19916;-84
2022/02/17 11:25:39;;;;;;;;;;;;;;;;;;5077349;28;19915;-84
2022/02/17 11:28:04;;;;;;;;;;;;;;;;;;5077215;28;19999;-83
2022/02/17 11:30:31;;;;;;;;;;;;;;;;;;5076555;28;19934;-83
2022/02/17 11:32:56;;;;;;;;;;;;;;;;;;5057223;28;19973;-83
2022/02/17 11:35:21;;;;;;;;;;;;;;;;;;5057135;28;20334;-82
2022/02/17 11:37:47;;;;;;;;;;;;;;;;;;5068835;28;19912;-83
2022/02/17 11:40:15;;;;;;;;;;;;;;;;;;5077060;28;19908;-82
2022/02/17 11:42:42;;;;;;;;;;;;;;;;;;5076821;28;19904;-83
2022/02/17 11:45:07;;;;;;;;;;;;;;;;;;5076918;28;19999;-82
2022/02/17 11:47:33;;;;;;;;;;;;;;;;;;5076691;28;19962;-82
2022/02/17 11:49:58;;;;;;;;;;;;;;;;;;5094461;28;19916;-82
2022/02/17 11:52:23;;;;;;;;;;;;;;;;;;5076532;28;19912;-82
2022/02/17 11:54:48;;;;;;;;;;;;;;;;;;5076165;28;19916;-82
2022/02/17 11:57:14;;;;;;;;;;;;;;;;;;5095976;28;20576;-82
2022/02/17 11:59:39;;;;;;;;;;;;;;;;;;5069153;28;19919;-83
2022/02/17 12:02:06;;;;;;;;;;;;;;;;;;5076559;28;20009;-83
2022/02/17 12:04:32;;;;;;;;;;;;;;;;;;5095903;28;19919;-82
2022/02/17 12:06:57;;;;;;;;;;;;;;;;;;5115097;28;19912;-81
2022/02/17 12:09:22;;;;;;;;;;;;;;;;;;5083573;28;19911;-83
2022/02/17 12:11:48;;;;;;;;;;;;;;;;;;5096765;28;20002;-81
2022/02/17 12:14:13;;;;;;;;;;;;;;;;;;5095364;28;20354;-80
2022/02/17 12:16:38;;;;;;;;;;;;;;;;;;5096688;28;19926;-80
2022/02/17 12:19:04;;;;;;;;;;;;;;;;;;5088243;28;19920;-81
2022/02/17 12:21:29;;;;;;;;;;;;;;;;;;5095081;28;20324;-81
2022/02/17 12:23:54;;;;;;;;;;;;;;;;;;5088682;28;20359;-81
2022/02/17 12:26:39;;;;;;;;;;;;;;;;;;5080698;28;19911;-81
2022/02/17 12:29:04;;;;;;;;;;;;;;;;;;5092119;28;20329;-81
2022/02/17 12:31:29;;;;;;;;;;;;;;;;;;5093241;28;20430;-81
2022/02/17 12:33:54;;;;;;;;;;;;;;;;;;5091628;28;19920;-81
2022/02/17 12:36:19;;;;;;;;;;;;;;;;;;5078598;28;19999;-81
2022/02/17 12:38:44;;;;;;;;;;;;;;;;;;5075723;28;20532;-82
2022/02/17 12:41:10;;;;;;;;;;;;;;;;;;5077953;28;20033;-82
2022/02/17 12:43:36;;;;;;;;;;;;;;;;;;5075889;28;19920;-82
2022/02/17 12:46:01;;;;;;;;;;;;;;;;;;5062952;28;20284;-82
2022/02/17 12:48:26;;;;;;;;;;;;;;;;;;5089221;28;20004;-81
2022/02/17 12:50:51;;;;;;;;;;;;;;;;;;5091661;28;19931;-82
2022/02/17 12:53:16;;;;;;;;;;;;;;;;;;5075240;28;19916;-82
2022/02/17 12:55:42;;;;;;;;;;;;;;;;;;5075656;28;20329;-82
2022/02/17 12:58:07;;;;;;;;;;;;;;;;;;5075672;28;19909;-82
2022/02/17 13:00:32;;;;;;;;;;;;;;;;;;5068560;28;19920;-82
2022/02/17 13:02:57;;;;;;;;;;;;;;;;;;5065863;28;20253;-82
2022/02/17 13:05:23;;;;;;;;;;;;;;;;;;5064800;28;19973;-82
2022/02/17 13:07:48;;;;;;;;;;;;;;;;;;5084990;28;20390;-83
2022/02/17 13:10:13;;;;;;;;;;;;;;;;;;5090626;28;19923;-82
2022/02/17 13:12:38;;;;;;;;;;;;;;;;;;5073864;28;19951;-82
2022/02/17 13:15:05;;;;;;;;;;;;;;;;;;5075433;28;19908;-82
2022/02/17 13:17:30;;;;;;;;;;;;;;;;;;5075413;28;19974;-82
2022/02/17 13:19:56;;;;;;;;;;;;;;;;;;5075253;28;20340;-82
2022/02/17 13:22:21;;;;;;;;;;;;;;;;;;5075083;28;19915;-82
2022/02/17 13:24:46;;;;;;;;;;;;;;;;;;5075312;28;19908;-82
2022/02/17 13:27:11;;;;;;;;;;;;;;;;;;5074877;28;20534;-82
2022/02/17 13:29:36;;;;;;;;;;;;;;;;;;5092917;28;19916;-81
2022/02/17 13:32:01;;;;;;;;;;;;;;;;;;5074496;28;20409;-82
2022/02/17 13:34:26;;;;;;;;;;;;;;;;;;5074996;28;19963;-82
2022/02/17 13:36:52;;;;;;;;;;;;;;;;;;5075010;28;19998;-82
2022/02/17 13:39:17;;;;;;;;;;;;;;;;;;5075252;28;19913;-82
2022/02/17 13:41:42;;;;;;;;;;;;;;;;;;5074611;28;20076;-82
2022/02/17 13:44:07;;;;;;;;;;;;;;;;;;5075051;28;19919;-82
2022/02/17 13:46:32;;;;;;;;;;;;;;;;;;5074534;28;19981;-82
2022/02/17 13:48:57;;;;;;;;;;;;;;;;;;5074696;28;19919;-82
2022/02/17 13:51:25;;;;;;;;;;;;;;;;;;5074944;28;19908;-82
2022/02/17 13:53:51;;;;;;;;;;;;;;;;;;5074271;28;19923;-82
2022/02/17 13:56:17;;;;;;;;;;;;;;;;;;5074484;28;19913;-82
2022/02/17 13:58:42;;;;;;;;;;;;;;;;;;5074918;28;19958;-82
2022/02/17 14:01:08;;;;;;;;;;;;;;;;;;5060569;28;19916;-82
2022/02/17 14:03:33;;;;;;;;;;;;;;;;;;5054909;28;19919;-82
2022/02/17 14:05:58;;;;;;;;;;;;;;;;;;5055049;28;20253;-82
2022/02/17 14:08:23;;;;;;;;;;;;;;;;;;5068088;28;19948;-82
2022/02/17 14:10:48;;;;;;;;;;;;;;;;;;5074251;28;19920;-81
2022/02/17 14:13:13;;;;;;;;;;;;;;;;;;5074147;28;19916;-82
2022/02/17 14:15:38;;;;;;;;;;;;;;;;;;5060284;28;19912;-82
2022/02/17 14:18:04;;;;;;;;;;;;;;;;;;5056842;28;19962;-81
2022/02/17 14:20:29;;;;;;;;;;;;;;;;;;5075427;28;20007;-81
2022/02/17 14:22:54;;;;;;;;;;;;;;;;;;5078195;28;20010;-81
2022/02/17 14:25:19;;;;;;;;;;;;;;;;;;5078271;28;19908;-81
2022/02/17 14:27:44;;;;;;;;;;;;;;;;;;5078362;28;20278;-81
2022/02/17 14:30:09;;;;;;;;;;;;;;;;;;5096909;28;20002;-81
2022/02/17 14:32:34;;;;;;;;;;;;;;;;;;5077663;28;19920;-82
2022/02/17 14:35:11;;;;;;;;;;;;;;;;;;5095958;28;19916;-82
2022/02/17 14:37:36;;;;;;;;;;;;;;;;;;5078021;28;20276;-81
2022/02/17 14:40:02;;;;;;;;;;;;;;;;;;5078197;28;19915;-82
2022/02/17 14:42:27;;;;;;;;;;;;;;;;;;5077601;28;19918;-81
2022/02/17 14:44:52;;;;;;;;;;;;;;;;;;5077735;28;20260;-81
2022/02/17 14:47:17;;;;;;;;;;;;;;;;;;5096081;28;19953;-81
2022/02/17 14:49:42;;;;;;;;;;;;;;;;;;5077807;28;19915;-82
2022/02/17 14:52:07;;;;;;;;;;;;;;;;;;5095358;28;19915;-81
2022/02/17 14:54:32;;;;;;;;;;;;;;;;;;5077856;28;20002;-81
2022/02/17 14:56:57;;;;;;;;;;;;;;;;;;5076959;28;19912;-82
2022/02/17 14:59:25;;;;;;;;;;;;;;;;;;5077553;28;20023;-81
2022/02/17 15:01:51;;;;;;;;;;;;;;;;;;5077293;28;19916;-81
2022/02/17 15:04:16;;;;;;;;;;;;;;;;;;5077603;28;19911;-81
2022/02/17 15:06:41;;;;;;;;;;;;;;;;;;5077394;28;19908;-81
2022/02/17 15:09:06;;;;;;;;;;;;;;;;;;5077556;28;19912;-81
2022/02/17 15:11:31;;;;;;;;;;;;;;;;;;5077326;28;20410;-81
2022/02/17 15:13:56;;;;;;;;;;;;;;;;;;5077392;28;19958;-81
2022/02/17 15:16:23;;;;;;;;;;;;;;;;;;5076495;28;19999;-81
2022/02/17 15:18:48;;;;;;;;;;;;;;;;;;5077568;28;19908;-81
2022/02/17 15:21:13;;;;;;;;;;;;;;;;;;5095452;28;19957;-81
2022/02/17 15:23:38;;;;;;;;;;;;;;;;;;5077543;28;20252;-81
2022/02/17 15:26:03;;;;;;;;;;;;;;;;;;5077106;28;20299;-81
2022/02/17 15:28:28;;;;;;;;;;;;;;;;;;5076615;28;19908;-82
2022/02/17 15:30:53;;;;;;;;;;;;;;;;;;5076549;28;19916;-82
2022/02/17 15:33:18;;;;;;;;;;;;;;;;;;5076648;28;20371;-82
2022/02/17 15:35:43;;;;;;;;;;;;;;;;;;5076630;28;20003;-81
2022/02/17 15:38:09;;;;;;;;;;;;;;;;;;5094977;28;19951;-81
2022/02/17 15:40:34;;;;;;;;;;;;;;;;;;5076682;28;19947;-81
2022/02/17 15:42:59;;;;;;;;;;;;;;;;;;5076870;28;20002;-81
2022/02/17 15:45:25;;;;;;;;;;;;;;;;;;5075833;28;19918;-81
2022/02/17 15:47:50;;;;;;;;;;;;;;;;;;5076627;28;19912;-81
2022/02/17 15:50:15;;;;;;;;;;;;;;;;;;5076314;28;19981;-81
2022/02/17 15:52:41;;;;;;;;;;;;;;;;;;5076709;28;19916;-81
2022/02/17 15:55:06;;;;;;;;;;;;;;;;;;5076364;28;19955;-81
2022/02/17 15:57:31;;;;;;;;;;;;;;;;;;5076681;28;19908;-82
2022/02/17 15:59:57;;;;;;;;;;;;;;;;;;5076506;28;19933;-80
2022/02/17 16:02:22;;;;;;;;;;;;;;;;;;5076125;28;19915;-81
2022/02/17 16:04:47;;;;;;;;;;;;;;;;;;5075969;28;20006;-81
2022/02/17 16:07:12;;;;;;;;;;;;;;;;;;5076303;28;19908;-81
2022/02/17 16:09:37;;;;;;;;;;;;;;;;;;5094075;28;19912;-81
2022/02/17 16:12:03;;;;;;;;;;;;;;;;;;5094373;28;19908;-81
2022/02/17 16:14:29;;;;;;;;;;;;;;;;;;5076178;28;20395;-81
2022/02/17 16:16:54;;;;;;;;;;;;;;;;;;5076306;28;20283;-81
2022/02/17 16:19:20;;;;;;;;;;;;;;;;;;5076228;28;19916;-81
2022/02/17 16:21:45;;;;;;;;;;;;;;;;;;5073962;28;19931;-81
2022/02/17 16:24:10;;;;;;;;;;;;;;;;;;5076009;28;19994;-81
2022/02/17 16:26:36;;;;;;;;;;;;;;;;;;5093946;28;19919;-81
2022/02/17 16:29:01;;;;;;;;;;;;;;;;;;5075917;28;19958;-81
2022/02/17 16:31:26;;;;;;;;;;;;;;;;;;5094089;28;19953;-82
2022/02/17 16:33:51;;;;;;;;;;;;;;;;;;5085543;28;19969;-82
2022/02/17 16:36:16;;;;;;;;;;;;;;;;;;5086108;28;19965;-81